Weather at Angelina County Airport

Public forecast

Using degrees Fahrenheit for public forecast. Weather courtesy of forecast.io.

Current aviation weather report (METAR) for Angelina County Airport

Retrieved 2021/12/08 12:53 UTC (8 minutes ago):

KLFK 081253Z AUTO 13003KT 10SM OVC011 11/09 A3005 RMK AO2 SLP174 T01060094

Aviation forecast (TAF) for Angelina County Airport

Retrieved 2021/12/08 12:22 UTC (39 minutes ago):

TAF KLFK 081120Z 0812/0912 08004KT P6SM OVC025 TEMPO 0812/0815 3SM BR BKN015 FM081500 08005KT P6SM BKN015 TEMPO 0815/0819 SCT030 SCT250 FM081900 10006KT P6SM SCT035 SCT250 FM090000 13004KT P6SM SCT035 BKN250 FM090300 13004KT P6SM BKN015 BKN250 FM090600 14005KT P6SM OVC008